Time;durP1;ratioP1;P1;durP2;ratioP2;P2;SDS_P1;SDS_P2;PMS_P1;PMS_P2;Temp;Humidity;BMP_temperature;BMP_pressure;BME280_temperature;BME280_humidity;BME280_pressure;Samples;Min_cycle;Max_cycle;Signal;HPM_P1;HPM_P2
2022/11/21 00:03:05;;;;;;;;;;;17.40;46.00;;;;;;8332831;28;20007;-45
2022/11/21 00:07:05;;;;;;;;;;;17.30;45.90;;;;;;8331612;28;19929;-46
2022/11/21 00:11:06;;;;;;;;;;;17.30;45.90;;;;;;8332199;28;19914;-46
2022/11/21 00:15:06;;;;;;;;;;;17.30;45.90;;;;;;8332192;28;19932;-47
2022/11/21 00:19:07;;;;;;;;;;;17.30;45.90;;;;;;8332018;28;19920;-49
2022/11/21 00:23:08;;;;;;;;;;;17.30;45.80;;;;;;8332010;28;20345;-46
2022/11/21 00:27:08;;;;;;;;;;;17.30;45.90;;;;;;8332095;28;19948;-46
2022/11/21 00:31:16;;;;;;;;;;;17.30;45.90;;;;;;8331327;28;19918;-45
2022/11/21 00:35:17;;;;;;;;;;;17.30;45.90;;;;;;8331885;28;19927;-49
2022/11/21 00:39:17;;;;;;;;;;;17.30;45.90;;;;;;8331843;28;19918;-48
2022/11/21 00:43:17;;;;;;;;;;;17.20;45.90;;;;;;8331104;28;19956;-48
2022/11/21 00:47:18;;;;;;;;;;;17.30;45.90;;;;;;8331303;28;19917;-47
2022/11/21 00:51:19;;;;;;;;;;;17.30;45.90;;;;;;8331177;28;19924;-46
2022/11/21 00:55:19;;;;;;;;;;;17.30;45.90;;;;;;8330615;28;19960;-46
2022/11/21 00:59:19;;;;;;;;;;;17.30;45.90;;;;;;8331143;28;20374;-46
2022/11/21 01:03:20;;;;;;;;;;;17.30;45.90;;;;;;8331364;28;19948;-46
2022/11/21 01:07:20;;;;;;;;;;;17.20;45.80;;;;;;8330067;28;19975;-47
2022/11/21 01:11:21;;;;;;;;;;;17.30;45.90;;;;;;8330621;28;19913;-46
2022/11/21 01:15:21;;;;;;;;;;;17.20;45.90;;;;;;8329922;28;20517;-44
2022/11/21 01:19:22;;;;;;;;;;;17.20;45.80;;;;;;8329936;28;20381;-46
2022/11/21 01:23:22;;;;;;;;;;;17.20;45.80;;;;;;8330664;28;20370;-46
2022/11/21 01:27:22;;;;;;;;;;;17.20;45.80;;;;;;8329875;28;19914;-46
2022/11/21 01:31:24;;;;;;;;;;;17.20;45.80;;;;;;8330271;28;19917;-46
2022/11/21 01:35:25;;;;;;;;;;;17.20;45.80;;;;;;8330031;28;19925;-46
2022/11/21 01:39:25;;;;;;;;;;;17.20;45.80;;;;;;8329721;28;19964;-45
2022/11/21 01:43:26;;;;;;;;;;;17.20;45.90;;;;;;8330024;28;19924;-45
2022/11/21 01:47:26;;;;;;;;;;;17.20;45.90;;;;;;8329985;28;19917;-46
2022/11/21 01:51:37;;;;;;;;;;;17.20;45.90;;;;;;8329667;28;20023;-46
2022/11/21 01:55:38;;;;;;;;;;;17.20;45.90;;;;;;8329845;28;19928;-45
2022/11/21 01:59:57;;;;;;;;;;;17.20;45.90;;;;;;8329859;28;20362;-46
2022/11/21 02:04:00;;;;;;;;;;;17.20;45.80;;;;;;8329302;28;19967;-45
2022/11/21 02:08:08;;;;;;;;;;;17.20;45.90;;;;;;8328857;28;19928;-45
2022/11/21 02:12:22;;;;;;;;;;;17.20;45.90;;;;;;8328199;28;19931;-45
2022/11/21 02:16:23;;;;;;;;;;;17.10;45.90;;;;;;8329007;28;20349;-46
2022/11/21 02:20:25;;;;;;;;;;;17.20;45.90;;;;;;8329495;28;19960;-45
2022/11/21 02:24:29;;;;;;;;;;;17.10;45.90;;;;;;8329030;28;19917;-46
2022/11/21 02:28:30;;;;;;;;;;;17.10;45.90;;;;;;8329390;28;19917;-45
2022/11/21 02:32:32;;;;;;;;;;;17.10;45.90;;;;;;8333013;28;19913;-46
2022/11/21 02:36:37;;;;;;;;;;;17.10;45.90;;;;;;8334839;28;20357;-45
2022/11/21 02:40:42;;;;;;;;;;;17.10;46.00;;;;;;8335374;28;19924;-46
2022/11/21 02:44:50;;;;;;;;;;;17.10;46.00;;;;;;8335395;28;19917;-45
2022/11/21 02:48:51;;;;;;;;;;;17.10;45.90;;;;;;8334564;28;19996;-46
2022/11/21 02:52:51;;;;;;;;;;;17.10;45.90;;;;;;8334967;28;19917;-46
2022/11/21 02:56:52;;;;;;;;;;;17.10;46.00;;;;;;8334843;28;20008;-45
2022/11/21 03:00:54;;;;;;;;;;;17.10;46.00;;;;;;8334250;28;19925;-46
2022/11/21 03:04:54;;;;;;;;;;;17.10;46.00;;;;;;8334683;28;19917;-45
2022/11/21 03:08:54;;;;;;;;;;;17.10;46.00;;;;;;8334182;28;20370;-46
2022/11/21 03:12:59;;;;;;;;;;;17.10;46.00;;;;;;8333604;28;19943;-45
2022/11/21 03:17:00;;;;;;;;;;;17.10;46.00;;;;;;8334176;28;19921;-46
2022/11/21 03:21:00;;;;;;;;;;;17.00;46.00;;;;;;8334012;28;20306;-45
2022/11/21 03:25:01;;;;;;;;;;;17.00;46.00;;;;;;8333572;28;20040;-45
2022/11/21 03:29:01;;;;;;;;;;;17.10;46.00;;;;;;8333750;28;19917;-46
2022/11/21 03:33:01;;;;;;;;;;;17.10;46.00;;;;;;8333661;28;19967;-45
2022/11/21 03:37:02;;;;;;;;;;;17.00;46.00;;;;;;8332921;28;20012;-45
2022/11/21 03:41:04;;;;;;;;;;;17.00;46.10;;;;;;8333466;28;19921;-46
2022/11/21 03:45:05;;;;;;;;;;;17.10;46.00;;;;;;8332538;28;19925;-45
2022/11/21 03:49:06;;;;;;;;;;;17.00;46.00;;;;;;8332783;28;20301;-45
2022/11/21 03:53:06;;;;;;;;;;;17.00;46.00;;;;;;8333222;28;20007;-46
2022/11/21 03:57:07;;;;;;;;;;;17.00;46.10;;;;;;8332699;28;19928;-46
2022/11/21 04:01:07;;;;;;;;;;;17.00;46.10;;;;;;8332419;28;19921;-45
2022/11/21 04:05:08;;;;;;;;;;;17.00;46.10;;;;;;8332600;28;19917;-45
2022/11/21 04:09:08;;;;;;;;;;;17.00;46.10;;;;;;8332347;28;19921;-46
2022/11/21 04:13:09;;;;;;;;;;;17.00;46.10;;;;;;8331888;28;20004;-46
2022/11/21 04:17:09;;;;;;;;;;;17.00;46.10;;;;;;8332049;28;20385;-45
2022/11/21 04:21:10;;;;;;;;;;;17.00;46.10;;;;;;8332206;28;19917;-45
2022/11/21 04:25:12;;;;;;;;;;;17.00;46.10;;;;;;8331483;28;19917;-46
2022/11/21 04:29:12;;;;;;;;;;;17.00;46.10;;;;;;8331974;28;19971;-46
2022/11/21 04:33:14;;;;;;;;;;;17.00;46.10;;;;;;8331593;28;20361;-45
2022/11/21 04:37:14;;;;;;;;;;;17.00;46.10;;;;;;8331114;28;19929;-45
2022/11/21 04:41:15;;;;;;;;;;;17.00;46.10;;;;;;8331527;28;19955;-45
2022/11/21 04:45:15;;;;;;;;;;;17.00;46.10;;;;;;8331333;28;19919;-45
2022/11/21 04:49:16;;;;;;;;;;;17.00;46.10;;;;;;8330768;28;20390;-45
2022/11/21 04:53:16;;;;;;;;;;;17.00;46.10;;;;;;8331358;28;19913;-46
2022/11/21 04:57:17;;;;;;;;;;;17.00;46.10;;;;;;8330855;28;20414;-46
2022/11/21 05:01:17;;;;;;;;;;;17.00;46.10;;;;;;8330605;28;20374;-45
2022/11/21 05:05:18;;;;;;;;;;;17.00;46.20;;;;;;8330489;28;19943;-46
2022/11/21 05:09:18;;;;;;;;;;;17.00;46.10;;;;;;8330459;28;20008;-46
2022/11/21 05:13:21;;;;;;;;;;;17.00;46.10;;;;;;8330092;28;20386;-47
2022/11/21 05:17:22;;;;;;;;;;;17.00;46.20;;;;;;8330249;28;19925;-46
2022/11/21 05:21:22;;;;;;;;;;;17.00;46.20;;;;;;8330147;28;20305;-47
2022/11/21 05:25:22;;;;;;;;;;;17.00;46.20;;;;;;8330640;28;20432;-46
2022/11/21 05:29:23;;;;;;;;;;;17.00;46.10;;;;;;8330119;28;19917;-44
2022/11/21 05:33:23;;;;;;;;;;;17.00;46.10;;;;;;8329696;28;19917;-44
2022/11/21 05:37:24;;;;;;;;;;;17.00;46.70;;;;;;8329987;28;19925;-45
2022/11/21 05:41:24;;;;;;;;;;;17.00;46.10;;;;;;8330389;28;19917;-45
2022/11/21 05:45:25;;;;;;;;;;;17.00;46.10;;;;;;8329508;28;19921;-46
2022/11/21 05:49:25;;;;;;;;;;;17.00;46.10;;;;;;8329770;28;19917;-46
2022/11/21 05:53:26;;;;;;;;;;;17.00;46.10;;;;;;8330098;28;20297;-46
2022/11/21 05:57:26;;;;;;;;;;;17.00;46.20;;;;;;8329172;28;19925;-46
2022/11/21 06:05:46;;;;;;;;;;;17.00;46.10;;;;;;8334803;28;20428;-45
2022/11/21 06:09:46;;;;;;;;;;;17.00;46.20;;;;;;8335594;28;19921;-45
2022/11/21 06:13:46;;;;;;;;;;;16.90;46.10;;;;;;8336313;28;20007;-47
2022/11/21 06:17:47;;;;;;;;;;;17.00;46.20;;;;;;8335764;28;19925;-45
2022/11/21 06:21:47;;;;;;;;;;;17.00;46.20;;;;;;8335503;28;19913;-46
2022/11/21 06:25:54;;;;;;;;;;;16.90;46.20;;;;;;8335640;28;19952;-45
2022/11/21 06:29:55;;;;;;;;;;;16.90;46.10;;;;;;8334358;28;19928;-45
2022/11/21 06:33:56;;;;;;;;;;;16.90;46.20;;;;;;8334954;28;19917;-48
2022/11/21 06:37:59;;;;;;;;;;;16.90;46.20;;;;;;8334959;28;20000;-46
2022/11/21 06:42:00;;;;;;;;;;;16.90;46.20;;;;;;8335619;28;19913;-45
2022/11/21 06:46:02;;;;;;;;;;;16.90;46.10;;;;;;8334712;28;19924;-45
2022/11/21 06:50:03;;;;;;;;;;;16.90;46.20;;;;;;8335165;28;20407;-45
2022/11/21 06:54:03;;;;;;;;;;;16.90;46.20;;;;;;8334671;28;19921;-45
2022/11/21 06:58:04;;;;;;;;;;;16.90;46.10;;;;;;8334225;28;20155;-45
2022/11/21 07:02:04;;;;;;;;;;;16.90;46.20;;;;;;8334692;28;19948;-47
2022/11/21 07:06:05;;;;;;;;;;;16.90;46.20;;;;;;8334253;28;19920;-46
2022/11/21 07:10:06;;;;;;;;;;;16.90;46.20;;;;;;8333511;28;20277;-45
2022/11/21 07:14:06;;;;;;;;;;;16.90;46.30;;;;;;8334035;28;19917;-46
2022/11/21 07:18:07;;;;;;;;;;;16.90;46.20;;;;;;8332892;28;20466;-45
2022/11/21 07:22:07;;;;;;;;;;;16.90;46.20;;;;;;8333601;28;19913;-46
2022/11/21 07:26:09;;;;;;;;;;;16.90;46.20;;;;;;8333950;28;19921;-46
2022/11/21 07:30:09;;;;;;;;;;;16.90;46.20;;;;;;8333458;28;19971;-46
2022/11/21 07:34:10;;;;;;;;;;;16.90;46.20;;;;;;8333088;28;20302;-45
2022/11/21 07:38:10;;;;;;;;;;;16.90;46.20;;;;;;8333555;28;19927;-45
2022/11/21 07:42:11;;;;;;;;;;;16.90;46.30;;;;;;8333623;28;20004;-45
2022/11/21 07:46:11;;;;;;;;;;;16.90;46.20;;;;;;8332707;28;19918;-45
2022/11/21 07:50:11;;;;;;;;;;;16.90;46.30;;;;;;8333056;28;19945;-46
2022/11/21 07:54:12;;;;;;;;;;;16.90;46.20;;;;;;8333090;28;20325;-45
2022/11/21 07:58:14;;;;;;;;;;;16.90;46.20;;;;;;8332378;28;19925;-46
2022/11/21 08:02:32;;;;;;;;;;;16.80;46.20;;;;;;8333180;28;20322;-49
2022/11/21 08:06:33;;;;;;;;;;;16.80;46.20;;;;;;8334274;28;19918;-47
2022/11/21 08:10:41;;;;;;;;;;;16.90;46.20;;;;;;8318047;28;20432;-46
2022/11/21 08:14:41;;;;;;;;;;;16.90;46.30;;;;;;8314234;28;20003;-47
2022/11/21 08:18:42;;;;;;;;;;;16.90;46.20;;;;;;8331715;28;19940;-46
2022/11/21 08:22:42;;;;;;;;;;;16.90;46.20;;;;;;8332302;28;19914;-45
2022/11/21 08:26:43;;;;;;;;;;;16.90;46.30;;;;;;8332023;28;19997;-45
2022/11/21 08:30:44;;;;;;;;;;;16.90;46.30;;;;;;8331187;28;19921;-46
2022/11/21 08:34:44;;;;;;;;;;;16.90;46.30;;;;;;8331664;28;19917;-45
2022/11/21 08:38:44;;;;;;;;;;;16.90;46.30;;;;;;8331745;28;19921;-45
2022/11/21 08:42:45;;;;;;;;;;;16.90;46.30;;;;;;8331283;28;19983;-46
2022/11/21 08:46:45;;;;;;;;;;;16.90;46.30;;;;;;8331196;28;19956;-46
2022/11/21 08:50:46;;;;;;;;;;;16.90;46.30;;;;;;8331115;28;19917;-45
2022/11/21 08:54:46;;;;;;;;;;;16.90;46.30;;;;;;8330488;28;19917;-45
2022/11/21 08:58:47;;;;;;;;;;;16.90;46.30;;;;;;8330993;28;20366;-45
2022/11/21 09:02:47;;;;;;;;;;;16.90;46.30;;;;;;8331107;28;19917;-46
2022/11/21 09:06:47;;;;;;;;;;;16.90;46.30;;;;;;8330123;28;20289;-45
2022/11/21 09:10:48;;;;;;;;;;;16.90;46.30;;;;;;8330672;28;19917;-45
2022/11/21 09:19:07;;;;;;;;;;;16.90;46.40;;;;;;8330022;28;19925;-46
2022/11/21 09:23:09;;;;;;;;;;;16.90;46.40;;;;;;8330433;28;19913;-45
2022/11/21 09:27:09;;;;;;;;;;;16.90;46.30;;;;;;8330278;28;19917;-45
2022/11/21 09:31:10;;;;;;;;;;;16.90;46.40;;;;;;8329704;28;20386;-47
2022/11/21 09:35:10;;;;;;;;;;;16.90;46.40;;;;;;8330119;28;19921;-46
2022/11/21 09:39:11;;;;;;;;;;;16.90;46.40;;;;;;8330280;28;20282;-46
2022/11/21 09:43:30;;;;;;;;;;;16.90;46.40;;;;;;8329089;28;20362;-46
2022/11/21 09:47:30;;;;;;;;;;;16.90;46.30;;;;;;8330008;28;20432;-46
2022/11/21 09:51:31;;;;;;;;;;;16.90;46.30;;;;;;8329366;28;19913;-46
2022/11/21 09:55:36;;;;;;;;;;;16.90;46.40;;;;;;8329533;28;20409;-46
2022/11/21 09:59:37;;;;;;;;;;;17.00;46.40;;;;;;8329745;28;19913;-45
2022/11/21 10:03:42;;;;;;;;;;;17.00;46.40;;;;;;8329612;28;20035;-45
2022/11/21 10:07:43;;;;;;;;;;;17.00;46.40;;;;;;8329637;28;19921;-45
2022/11/21 10:16:40;;;;;;;;;;;17.00;46.30;;;;;;8328878;28;19978;-46
2022/11/21 10:20:58;;;;;;;;;;;17.00;46.30;;;;;;8329367;28;20007;-46
2022/11/21 10:25:02;;;;;;;;;;;17.00;46.30;;;;;;8328742;28;20385;-46
2022/11/21 10:29:24;;;;;;;;;;;17.00;46.30;;;;;;8329374;28;19943;-46
2022/11/21 10:33:32;;;;;;;;;;;17.00;46.30;;;;;;8329300;28;20298;-44
2022/11/21 10:37:41;;;;;;;;;;;17.00;46.30;;;;;;8328994;28;19968;-44
2022/11/21 10:41:55;;;;;;;;;;;17.00;46.30;;;;;;8329237;28;20384;-45
2022/11/21 10:45:55;;;;;;;;;;;17.00;46.30;;;;;;8328551;28;19924;-46
2022/11/21 10:49:58;;;;;;;;;;;17.00;46.30;;;;;;8329009;28;19913;-45
2022/11/21 10:58:40;;;;;;;;;;;17.00;46.30;;;;;;8334686;28;19978;-45
2022/11/21 11:03:04;;;;;;;;;;;17.10;46.30;;;;;;8334771;28;19924;-45
2022/11/21 11:07:24;;;;;;;;;;;17.10;46.30;;;;;;8333890;28;19925;-45
2022/11/21 11:11:25;;;;;;;;;;;17.10;46.30;;;;;;8323468;28;20292;-45
2022/11/21 11:15:26;;;;;;;;;;;17.10;46.20;;;;;;8311998;28;20017;-44
2022/11/21 11:19:29;;;;;;;;;;;17.10;46.20;;;;;;8334162;28;19937;-45
2022/11/21 11:23:29;;;;;;;;;;;17.10;46.10;;;;;;8334216;28;19917;-44
2022/11/21 11:27:30;;;;;;;;;;;17.10;46.20;;;;;;8333362;28;19924;-45
2022/11/21 11:31:38;;;;;;;;;;;17.10;46.20;;;;;;8334151;28;20088;-45
2022/11/21 11:35:39;;;;;;;;;;;17.10;46.10;;;;;;8333681;28;19921;-45
2022/11/21 11:39:42;;;;;;;;;;;17.10;46.10;;;;;;8333115;28;20018;-45
2022/11/21 11:48:11;;;;;;;;;;;17.20;46.20;;;;;;8333317;28;19923;-45
2022/11/21 11:52:12;;;;;;;;;;;17.20;46.20;;;;;;8332665;28;19925;-47
2022/11/21 11:56:19;;;;;;;;;;;17.20;46.10;;;;;;8332693;28;20301;-44
2022/11/21 12:00:19;;;;;;;;;;;17.20;46.10;;;;;;8332857;28;20381;-45
2022/11/21 12:04:21;;;;;;;;;;;17.20;46.10;;;;;;8331933;28;19917;-45
2022/11/21 12:08:45;;;;;;;;;;;17.20;46.10;;;;;;8332738;28;20301;-45
2022/11/21 12:12:54;;;;;;;;;;;17.20;46.10;;;;;;8324128;28;19967;-46
2022/11/21 12:16:55;;;;;;;;;;;17.20;46.10;;;;;;8332235;28;19925;-46
2022/11/21 12:21:01;;;;;;;;;;;17.20;46.10;;;;;;8332264;28;20318;-45
2022/11/21 12:25:02;;;;;;;;;;;17.20;46.20;;;;;;8331612;28;20267;-45
2022/11/21 12:29:12;;;;;;;;;;;17.20;46.20;;;;;;8332139;28;19914;-45
2022/11/21 12:33:19;;;;;;;;;;;17.20;46.20;;;;;;8331125;28;21210;-45
2022/11/21 12:37:42;;;;;;;;;;;17.20;46.10;;;;;;8331115;28;19939;-46
2022/11/21 12:46:09;;;;;;;;;;;17.20;46.20;;;;;;8331868;28;19931;-44
2022/11/21 12:54:54;;;;;;;;;;;17.20;46.20;;;;;;8331227;28;19923;-44
2022/11/21 12:58:55;;;;;;;;;;;17.20;46.20;;;;;;8331860;28;19929;-44
2022/11/21 13:03:14;;;;;;;;;;;17.20;46.20;;;;;;8331043;28;19925;-45
2022/11/21 13:07:16;;;;;;;;;;;17.20;46.10;;;;;;8330411;28;19928;-44
2022/11/21 13:15:59;;;;;;;;;;;17.20;46.10;;;;;;8330523;28;19932;-45
2022/11/21 13:20:18;;;;;;;;;;;17.20;46.10;;;;;;8330642;28;19913;-45
2022/11/21 13:24:37;;;;;;;;;;;17.20;46.20;;;;;;8330823;28;19986;-46
2022/11/21 13:28:38;;;;;;;;;;;17.20;46.10;;;;;;8330106;28;19975;-46
2022/11/21 13:32:39;;;;;;;;;;;17.20;46.10;;;;;;8330409;28;20251;-45
2022/11/21 13:36:40;;;;;;;;;;;17.20;46.10;;;;;;8329725;28;19968;-47
2022/11/21 13:42:56;;;;;;;;;;;17.20;46.00;;;;;;8330607;28;20436;-45
2022/11/21 13:45:21;;;;;;;;;;;17.20;46.10;;;;;;8330435;28;20437;-45
2022/11/21 13:49:24;;;;;;;;;;;17.20;46.10;;;;;;8329924;28;19963;-45
2022/11/21 13:53:43;;;;;;;;;;;17.20;46.10;;;;;;8329954;28;19949;-46
2022/11/21 13:58:07;;;;;;;;;;;17.20;46.20;;;;;;8329323;28;20004;-46
2022/11/21 14:02:26;;;;;;;;;;;17.20;46.10;;;;;;8329878;28;19917;-46
2022/11/21 14:06:36;;;;;;;;;;;17.20;46.10;;;;;;8328354;28;19925;-45
2022/11/21 14:10:37;;;;;;;;;;;17.20;46.10;;;;;;8329703;28;19925;-45
2022/11/21 14:14:39;;;;;;;;;;;17.20;46.20;;;;;;8330264;28;19939;-45
2022/11/21 14:18:41;;;;;;;;;;;17.20;46.20;;;;;;8325126;28;20064;-45
2022/11/21 14:23:00;;;;;;;;;;;17.20;46.10;;;;;;8329506;28;19983;-48
2022/11/21 14:27:20;;;;;;;;;;;17.20;46.10;;;;;;8330588;28;19925;-45
2022/11/21 14:31:21;;;;;;;;;;;17.20;46.20;;;;;;8334986;28;19975;-47
2022/11/21 14:35:22;;;;;;;;;;;17.20;46.20;;;;;;8335799;28;19932;-46
2022/11/21 14:39:24;;;;;;;;;;;17.20;46.20;;;;;;8334740;28;19917;-46
2022/11/21 14:43:28;;;;;;;;;;;17.20;46.10;;;;;;8332578;28;19917;-46
2022/11/21 14:47:28;;;;;;;;;;;17.20;46.10;;;;;;8335159;28;19913;-45
2022/11/21 14:51:29;;;;;;;;;;;17.20;46.20;;;;;;8334578;28;19925;-46
2022/11/21 14:55:31;;;;;;;;;;;17.20;46.10;;;;;;8335020;28;20084;-45
2022/11/21 14:59:35;;;;;;;;;;;17.20;46.10;;;;;;8334696;28;19918;-45
2022/11/21 15:03:35;;;;;;;;;;;17.20;46.20;;;;;;8334147;28;19913;-45
2022/11/21 15:07:41;;;;;;;;;;;17.20;46.10;;;;;;8348183;28;20393;-45
2022/11/21 15:11:50;;;;;;;;;;;17.20;46.20;;;;;;8359118;28;20147;-45
2022/11/21 15:15:51;;;;;;;;;;;17.20;46.10;;;;;;8333821;28;19925;-45
2022/11/21 15:20:15;;;;;;;;;;;17.20;46.20;;;;;;8334209;28;19924;-46
2022/11/21 15:24:17;;;;;;;;;;;17.20;46.20;;;;;;8325824;28;19987;-47
2022/11/21 15:28:18;;;;;;;;;;;17.20;46.20;;;;;;8333333;28;19924;-47
2022/11/21 15:32:18;;;;;;;;;;;17.20;46.20;;;;;;8333308;28;19913;-45
2022/11/21 15:36:19;;;;;;;;;;;17.20;46.20;;;;;;8333334;28;20023;-46
2022/11/21 15:40:19;;;;;;;;;;;17.20;46.30;;;;;;8331972;28;19955;-46
2022/11/21 15:44:20;;;;;;;;;;;17.20;46.30;;;;;;8333223;28;19921;-45
2022/11/21 15:48:21;;;;;;;;;;;17.10;46.20;;;;;;8332927;28;19913;-44
2022/11/21 15:52:22;;;;;;;;;;;17.20;46.30;;;;;;8332900;28;20076;-45
2022/11/21 15:56:22;;;;;;;;;;;17.10;46.80;;;;;;8332906;28;19921;-46
2022/11/21 16:00:23;;;;;;;;;;;17.10;46.30;;;;;;8332134;28;19924;-47
2022/11/21 16:04:23;;;;;;;;;;;17.20;46.30;;;;;;8332435;28;19922;-45
2022/11/21 16:08:24;;;;;;;;;;;17.20;46.30;;;;;;8332237;28;20374;-45
2022/11/21 16:12:24;;;;;;;;;;;17.20;46.30;;;;;;8331288;28;20362;-44
2022/11/21 16:16:26;;;;;;;;;;;17.20;46.30;;;;;;8331914;28;20019;-44
2022/11/21 16:20:27;;;;;;;;;;;17.20;46.30;;;;;;8332236;28;19924;-45
2022/11/21 16:24:28;;;;;;;;;;;17.10;46.20;;;;;;8331135;28;19917;-48
2022/11/21 16:28:28;;;;;;;;;;;17.20;46.30;;;;;;8331498;28;19917;-48
2022/11/21 16:32:29;;;;;;;;;;;17.10;46.20;;;;;;8331877;28;19913;-45
2022/11/21 16:36:29;;;;;;;;;;;17.10;46.20;;;;;;8330986;28;19994;-45
2022/11/21 16:40:30;;;;;;;;;;;17.10;46.20;;;;;;8331562;28;20374;-45
2022/11/21 16:44:30;;;;;;;;;;;17.10;46.20;;;;;;8328493;28;20294;-45
2022/11/21 16:48:31;;;;;;;;;;;17.10;46.30;;;;;;8330954;28;19913;-44
2022/11/21 16:52:33;;;;;;;;;;;17.10;46.20;;;;;;8330650;28;19913;-44
2022/11/21 16:56:34;;;;;;;;;;;17.10;46.20;;;;;;8331143;28;19925;-45
2022/11/21 17:00:34;;;;;;;;;;;17.10;46.30;;;;;;8330884;28;19953;-45
2022/11/21 17:04:35;;;;;;;;;;;17.10;46.30;;;;;;8330774;28;19917;-44
2022/11/21 17:08:35;;;;;;;;;;;17.10;46.30;;;;;;8329768;28;19932;-46
2022/11/21 17:12:37;;;;;;;;;;;17.10;46.30;;;;;;8330156;28;19928;-46
2022/11/21 17:16:41;;;;;;;;;;;17.10;46.30;;;;;;8330258;28;19940;-46
2022/11/21 17:20:41;;;;;;;;;;;17.10;46.30;;;;;;8330571;28;20113;-45
2022/11/21 17:24:41;;;;;;;;;;;17.10;46.30;;;;;;8330044;28;19917;-46
2022/11/21 17:28:42;;;;;;;;;;;17.10;46.30;;;;;;8330276;28;19918;-46
2022/11/21 17:32:42;;;;;;;;;;;17.10;46.30;;;;;;8330149;28;20003;-46
2022/11/21 17:36:43;;;;;;;;;;;17.10;46.20;;;;;;8329515;28;20011;-45
2022/11/21 17:40:43;;;;;;;;;;;17.10;46.30;;;;;;8330164;28;19917;-45
2022/11/21 17:44:44;;;;;;;;;;;17.10;46.30;;;;;;8329866;28;19919;-45
2022/11/21 17:48:45;;;;;;;;;;;17.10;46.30;;;;;;8329547;28;19917;-45
2022/11/21 17:52:46;;;;;;;;;;;17.10;46.30;;;;;;8330251;28;20397;-44
2022/11/21 17:56:47;;;;;;;;;;;17.10;46.30;;;;;;8329878;28;19957;-44
2022/11/21 18:00:52;;;;;;;;;;;17.10;46.30;;;;;;8329461;28;19917;-45
2022/11/21 18:04:52;;;;;;;;;;;17.10;46.30;;;;;;8335869;28;19917;-46
2022/11/21 18:08:53;;;;;;;;;;;17.10;46.30;;;;;;8336168;28;20341;-46
2022/11/21 18:12:54;;;;;;;;;;;17.10;46.30;;;;;;8335644;28;19964;-44
2022/11/21 18:16:54;;;;;;;;;;;17.10;46.30;;;;;;8336282;28;20394;-45
2022/11/21 18:21:00;;;;;;;;;;;17.10;46.30;;;;;;8335972;28;19971;-45
2022/11/21 18:25:01;;;;;;;;;;;17.10;46.30;;;;;;8335269;28;20297;-45
2022/11/21 18:29:02;;;;;;;;;;;17.10;46.30;;;;;;8335803;28;19917;-45
2022/11/21 18:33:02;;;;;;;;;;;17.10;46.30;;;;;;8335384;28;19921;-45
2022/11/21 18:37:03;;;;;;;;;;;17.10;46.30;;;;;;8334997;28;19944;-45
2022/11/21 18:41:11;;;;;;;;;;;17.00;46.30;;;;;;8335526;28;19921;-48
2022/11/21 18:45:12;;;;;;;;;;;17.10;46.30;;;;;;8315271;28;19917;-44
2022/11/21 18:49:13;;;;;;;;;;;17.10;46.30;;;;;;8333165;28;20341;-46
2022/11/21 18:53:13;;;;;;;;;;;17.10;46.30;;;;;;8334994;28;19917;-46
2022/11/21 18:57:14;;;;;;;;;;;17.00;46.20;;;;;;8330697;28;19932;-45
2022/11/21 19:01:15;;;;;;;;;;;17.00;46.30;;;;;;8334256;28;19954;-44
2022/11/21 19:05:15;;;;;;;;;;;17.10;46.30;;;;;;8334352;28;19924;-45
2022/11/21 19:09:16;;;;;;;;;;;17.10;46.30;;;;;;8334102;28;20008;-43
2022/11/21 19:13:17;;;;;;;;;;;17.00;46.20;;;;;;8333793;28;19925;-44
2022/11/21 19:17:17;;;;;;;;;;;17.00;46.20;;;;;;8334212;28;20266;-44
2022/11/21 19:21:18;;;;;;;;;;;17.00;46.20;;;;;;8334135;28;19924;-45
2022/11/21 19:25:18;;;;;;;;;;;17.00;46.30;;;;;;8333370;28;19925;-45
2022/11/21 19:29:18;;;;;;;;;;;17.00;46.30;;;;;;8333715;28;19964;-47
2022/11/21 19:33:19;;;;;;;;;;;17.00;46.20;;;;;;8333746;28;19924;-45
2022/11/21 19:37:19;;;;;;;;;;;17.00;46.30;;;;;;8333258;28;19932;-48
2022/11/21 19:41:21;;;;;;;;;;;17.00;46.20;;;;;;8333423;28;19928;-45
2022/11/21 19:45:21;;;;;;;;;;;17.00;46.20;;;;;;8332869;28;19963;-46
2022/11/21 19:49:22;;;;;;;;;;;17.00;46.20;;;;;;8333400;28;19917;-46
2022/11/21 19:53:23;;;;;;;;;;;17.00;46.20;;;;;;8332968;28;20378;-48
2022/11/21 19:57:23;;;;;;;;;;;17.00;46.30;;;;;;8332546;28;20007;-47
2022/11/21 20:01:25;;;;;;;;;;;17.00;46.30;;;;;;8332988;28;19940;-46
2022/11/21 20:05:25;;;;;;;;;;;17.00;46.30;;;;;;8332591;28;19961;-45
2022/11/21 20:09:27;;;;;;;;;;;17.00;46.30;;;;;;8326068;28;19928;-46
2022/11/21 20:13:29;;;;;;;;;;;17.00;46.30;;;;;;8317124;28;19937;-46
2022/11/21 20:17:29;;;;;;;;;;;17.00;46.40;;;;;;8332095;28;19921;-45
2022/11/21 20:21:30;;;;;;;;;;;17.00;46.40;;;;;;8331676;28;20290;-45
2022/11/21 20:25:30;;;;;;;;;;;17.00;46.40;;;;;;8331098;28;19924;-45
2022/11/21 20:29:31;;;;;;;;;;;17.00;46.40;;;;;;8332047;28;19984;-46
2022/11/21 20:33:38;;;;;;;;;;;17.00;46.40;;;;;;8331445;28;19924;-46
2022/11/21 20:37:39;;;;;;;;;;;17.00;46.40;;;;;;8331948;28;19925;-46
2022/11/21 20:41:40;;;;;;;;;;;17.00;46.40;;;;;;8331531;28;19924;-45
2022/11/21 20:45:40;;;;;;;;;;;17.00;46.40;;;;;;8331201;28;20398;-46
2022/11/21 20:49:41;;;;;;;;;;;17.00;46.40;;;;;;8331510;28;19917;-45
2022/11/21 20:53:41;;;;;;;;;;;17.00;46.40;;;;;;8331644;28;19914;-46
2022/11/21 20:57:42;;;;;;;;;;;17.00;46.40;;;;;;8330959;28;19960;-45
2022/11/21 21:01:42;;;;;;;;;;;17.00;46.40;;;;;;8331283;28;19917;-46
2022/11/21 21:05:43;;;;;;;;;;;17.00;46.40;;;;;;8330777;28;19917;-45
2022/11/21 21:09:43;;;;;;;;;;;17.00;46.40;;;;;;8330309;28;19943;-46
2022/11/21 21:13:45;;;;;;;;;;;17.00;46.40;;;;;;8330836;28;19964;-46
2022/11/21 21:17:46;;;;;;;;;;;17.00;46.50;;;;;;8330722;28;19964;-45
2022/11/21 21:21:47;;;;;;;;;;;17.00;46.50;;;;;;8330117;28;20348;-45
2022/11/21 21:25:47;;;;;;;;;;;17.00;46.40;;;;;;8330344;28;19917;-46
2022/11/21 21:29:47;;;;;;;;;;;17.00;46.40;;;;;;8330435;28;19917;-46
2022/11/21 21:33:48;;;;;;;;;;;17.00;46.40;;;;;;8329813;28;19917;-48
2022/11/21 21:37:49;;;;;;;;;;;17.00;46.40;;;;;;8329578;28;20286;-45
2022/11/21 21:41:49;;;;;;;;;;;17.00;46.40;;;;;;8330062;28;19948;-45
2022/11/21 21:45:50;;;;;;;;;;;17.00;46.40;;;;;;8329470;28;19917;-46
2022/11/21 21:49:50;;;;;;;;;;;17.00;46.40;;;;;;8329991;28;19917;-45
2022/11/21 21:53:52;;;;;;;;;;;17.00;46.40;;;;;;8329973;28;19987;-45
2022/11/21 21:57:52;;;;;;;;;;;17.00;46.40;;;;;;8329499;28;19921;-45
2022/11/21 22:01:52;;;;;;;;;;;17.00;46.40;;;;;;8329724;28;20373;-46
2022/11/21 22:05:53;;;;;;;;;;;17.00;46.40;;;;;;8329838;28;19932;-46
2022/11/21 22:09:54;;;;;;;;;;;17.00;46.40;;;;;;8329099;28;20378;-45
2022/11/21 22:13:56;;;;;;;;;;;16.90;46.40;;;;;;8329532;28;19939;-45
2022/11/21 22:17:56;;;;;;;;;;;17.00;46.40;;;;;;8329907;28;20310;-46
2022/11/21 22:21:57;;;;;;;;;;;16.90;46.40;;;;;;8328986;28;19924;-45
2022/11/21 22:25:57;;;;;;;;;;;17.00;46.50;;;;;;8329262;28;20445;-45
2022/11/21 22:29:58;;;;;;;;;;;17.00;47.00;;;;;;8329303;28;19971;-46
2022/11/21 22:33:58;;;;;;;;;;;17.00;46.50;;;;;;8328926;28;20312;-45
2022/11/21 22:37:59;;;;;;;;;;;17.00;46.50;;;;;;8329652;28;20301;-45
2022/11/21 22:42:00;;;;;;;;;;;16.90;47.00;;;;;;8329301;28;19917;-46
2022/11/21 22:46:04;;;;;;;;;;;16.90;46.40;;;;;;8328724;28;19917;-47
2022/11/21 22:50:05;;;;;;;;;;;16.90;46.50;;;;;;8333373;28;19953;-46
2022/11/21 22:54:06;;;;;;;;;;;16.90;46.50;;;;;;8335049;28;19960;-46
2022/11/21 22:58:06;;;;;;;;;;;16.90;46.50;;;;;;8334702;28;19932;-46
2022/11/21 23:02:07;;;;;;;;;;;16.90;46.50;;;;;;8333817;28;19917;-45
2022/11/21 23:06:09;;;;;;;;;;;16.90;46.50;;;;;;8333797;28;20285;-46
2022/11/21 23:10:09;;;;;;;;;;;16.90;46.50;;;;;;8334043;28;19925;-46
2022/11/21 23:14:10;;;;;;;;;;;16.90;46.50;;;;;;8334657;28;20046;-45
2022/11/21 23:18:10;;;;;;;;;;;16.90;46.50;;;;;;8334355;28;19926;-45
2022/11/21 23:22:11;;;;;;;;;;;16.90;46.50;;;;;;8333905;28;20362;-45
2022/11/21 23:26:12;;;;;;;;;;;16.90;46.50;;;;;;8334289;28;19924;-45
2022/11/21 23:30:13;;;;;;;;;;;16.90;46.80;;;;;;8333934;28;19998;-46
2022/11/21 23:34:13;;;;;;;;;;;16.90;46.60;;;;;;8333405;28;19975;-47
2022/11/21 23:38:14;;;;;;;;;;;16.90;46.60;;;;;;8333783;28;20370;-45
2022/11/21 23:42:15;;;;;;;;;;;16.90;46.60;;;;;;8333457;28;19924;-45
2022/11/21 23:46:15;;;;;;;;;;;16.90;46.60;;;;;;8332950;28;19917;-46
2022/11/21 23:50:16;;;;;;;;;;;16.90;46.60;;;;;;8333323;28;20449;-46
2022/11/21 23:54:16;;;;;;;;;;;16.90;46.60;;;;;;8333221;28;20067;-45
2022/11/21 23:58:17;;;;;;;;;;;16.80;46.60;;;;;;8332761;28;20028;-47
